Airfield :
LOGIN :

Register | Disclaimer

   EN    FR    IT 

 










Legend :    VFR   Marginal VFR   IFR   Intensive IFR   Very Intensive IFR
Visi :
Ceiling :
>= 8 km
>= 3000ft
5 to 8 km
1000 to 3000 ft
1500m to 5 km
500 to 1000 ft
800 to 1500m
200 to 500 ft
< 800m
< 200 ft
Symbols :   Thunderstorms  Fog  Heavy snow  Heavy precipitations  Wind > 20 kt
SIGMETs :     Misc.  Thunderstorms  Icing  Turbulence  Mountain Waves  Volcanic Ashes






- Airport Elevation : 37 ft


EHVL - Vlieland Heliport

CURRENT METAR :
  • 032055Z AUTO 35010KT 9999 FEW013 15/12 Q1015 BLU

EXPIRED METARs :
  • 032025Z AUTO 34012KT 9999 FEW014 15/13 Q1015 BLU
  • 031955Z AUTO 34009KT 9999 NCD 16/12 Q1014 BLU
  • 031925Z AUTO 33010KT 9999 SCT054 16/10 Q1014 BLU
  • 031904Z AUTO 32012KT 9999 FEW021 SCT027 16/12 Q1014 BLU
  • 031856Z AUTO 32013KT 9999 BKN021 BKN025 OVC029 17/12 Q1014 WHT
  • 031830Z AUTO 33010KT 9999 BKN019 BKN023 17/// Q1014 WHT
  • 031825Z AUTO 33009KT 9999 FEW019 17/12 Q1014 BLU
  • 031801Z AUTO 32009KT 9999 SCT020 17/12 Q1014 WHT

Expired Forecast.



MET'MAP, your aeronautical weather chart ! - Copyright ORBIFLY December 2007 - Disclaimer

ORBIFLY MET'MAP TEAM :

Programming & Development : Alexandra Zaïnal
Concept & original design : Baudouin d'Aumeries
Assistance for programming : Marc-Olivier Méhu
Technical & hardware support : Manuel Goepfert

Contact : metmap@orbifly.com




SOURCES & CREDITS :

   NOAA